Time;durP1;ratioP1;P1;durP2;ratioP2;P2;SDS_P1;SDS_P2;PMS_P1;PMS_P2;Temp;Humidity;BMP_temperature;BMP_pressure;BME280_temperature;BME280_humidity;BME280_pressure;Samples;Min_cycle;Max_cycle;Signal;HPM_P1;HPM_P2
2021/01/18 00:02:09;;;;;;;29.77;12.32;;;;;;;2.70;81.19;97950.25;4914527;29;20039;-81
2021/01/18 00:04:35;;;;;;;25.13;11.23;;;;;;;2.72;81.32;97950.88;4891916;29;20072;-81
2021/01/18 00:07:04;;;;;;;23.95;11.57;;;;;;;2.64;81.31;97950.97;4874287;29;20983;-81
2021/01/18 00:09:30;;;;;;;29.20;13.00;;;;;;;2.78;80.81;97957.09;4878075;29;20037;-81
2021/01/18 00:11:56;;;;;;;22.23;11.40;;;;;;;2.79;81.55;97953.53;4890287;29;20726;-81
2021/01/18 00:14:21;;;;;;;23.17;11.00;;;;;;;2.72;81.33;97948.28;4865122;29;20480;-81
2021/01/18 00:16:47;;;;;;;27.65;12.32;;;;;;;2.70;81.18;97964.88;4894157;29;20396;-81
2021/01/18 00:19:13;;;;;;;29.85;12.25;;;;;;;2.63;81.68;97949.34;4915996;29;20041;-81
2021/01/18 00:21:47;;;;;;;26.63;12.93;;;;;;;2.58;81.34;97949.06;4865511;29;20054;-81
2021/01/18 00:24:13;;;;;;;30.90;12.90;;;;;;;2.69;81.07;97946.09;4879519;29;20096;-81
2021/01/18 00:26:39;;;;;;;25.40;12.65;;;;;;;2.65;81.56;97944.03;4909457;29;20151;-81
2021/01/18 00:29:04;;;;;;;34.65;14.10;;;;;;;2.58;81.44;97951.66;4908566;29;20044;-81
2021/01/18 00:31:29;;;;;;;24.95;11.73;;;;;;;2.55;81.74;97946.84;4882212;29;20038;-81
2021/01/18 00:33:55;;;;;;;21.58;11.25;;;;;;;2.54;81.96;97953.75;4886820;29;20472;-81
2021/01/18 00:36:21;;;;;;;29.35;13.32;;;;;;;2.56;82.03;97951.03;4892417;29;20051;-81
2021/01/18 00:38:46;;;;;;;31.42;11.68;;;;;;;2.53;82.16;97951.38;4900819;29;20176;-81
2021/01/18 00:41:12;;;;;;;30.38;13.27;;;;;;;2.57;81.98;97948.28;4899295;29;20610;-81
2021/01/18 00:43:38;;;;;;;30.42;13.48;;;;;;;2.50;82.04;97944.00;4891128;29;20044;-82
2021/01/18 00:46:04;;;;;;;24.73;12.48;;;;;;;2.61;82.04;97946.16;4903629;29;20040;-81
2021/01/18 00:48:30;;;;;;;29.35;12.25;;;;;;;2.57;81.53;97952.59;4895918;29;20035;-81
2021/01/18 00:50:56;;;;;;;29.35;12.57;;;;;;;2.46;81.83;97951.25;4913200;29;20047;-81
2021/01/18 00:53:22;;;;;;;25.83;11.10;;;;;;;2.51;81.86;97954.09;4913342;29;20032;-81
2021/01/18 00:55:48;;;;;;;22.55;10.88;;;;;;;2.61;81.90;97959.00;4900625;29;20539;-81
2021/01/18 00:58:14;;;;;;;22.55;9.85;;;;;;;2.56;81.26;97956.16;4898873;29;20053;-81
2021/01/18 01:00:40;;;;;;;27.10;11.07;;;;;;;2.57;81.60;97958.56;4893491;29;20027;-81
2021/01/18 01:03:07;;;;;;;22.50;11.05;;;;;;;2.63;81.36;97954.50;4892780;29;20036;-81
2021/01/18 01:05:33;;;;;;;29.75;13.10;;;;;;;2.61;81.24;97953.88;4913167;29;20495;-81
2021/01/18 01:07:59;;;;;;;27.30;11.73;;;;;;;2.53;81.15;97959.06;4914904;29;20074;-81
2021/01/18 01:10:35;;;;;;;26.75;13.52;;;;;;;2.40;81.30;97949.38;4915391;29;20451;-81
2021/01/18 01:13:04;;;;;;;24.08;11.52;;;;;;;2.53;81.71;97956.50;4931737;29;20762;-81
2021/01/18 01:15:30;;;;;;;22.65;10.10;;;;;;;2.67;81.40;97966.00;4910571;29;20361;-81
2021/01/18 01:17:56;;;;;;;23.20;10.32;;;;;;;2.67;80.47;97960.09;4900003;29;20031;-81
2021/01/18 01:20:23;;;;;;;24.27;10.07;;;;;;;2.64;81.30;97958.69;4902000;29;20032;-81
2021/01/18 01:22:49;;;;;;;23.20;10.82;;;;;;;2.72;81.08;97958.56;4900409;29;20066;-82
2021/01/18 01:25:17;;;;;;;23.23;10.07;;;;;;;2.58;80.63;97960.16;4880424;29;20072;-82
2021/01/18 01:27:43;;;;;;;22.55;10.90;;;;;;;2.71;81.12;97956.19;4895933;29;20036;-82
2021/01/18 01:30:14;;;;;;;24.77;9.77;;;;;;;2.63;80.63;97957.06;4895633;29;20043;-82
2021/01/18 01:32:42;;;;;;;23.10;10.52;;;;;;;2.69;80.98;97960.69;4894750;29;20028;-81
2021/01/18 01:35:09;;;;;;;21.10;10.82;;;;;;;2.64;80.98;97961.25;4895626;29;20036;-81
2021/01/18 01:37:36;;;;;;;24.83;11.48;;;;;;;2.57;80.81;97968.03;4907755;29;20072;-81
2021/01/18 01:40:04;;;;;;;22.75;10.20;;;;;;;2.57;81.33;97973.16;4895140;29;20110;-82
2021/01/18 01:42:29;;;;;;;23.70;9.45;;;;;;;2.66;81.17;97964.44;4896524;29;20514;-81
2021/01/18 01:44:55;;;;;;;22.73;10.13;;;;;;;2.57;80.91;97970.59;4897436;29;20035;-81
2021/01/18 01:47:47;;;;;;;20.23;9.63;;;;;;;2.43;81.04;97979.88;4909448;29;20051;-81
2021/01/18 01:50:24;;;;;;;21.90;10.15;;;;;;;2.48;81.15;97976.78;4896270;29;20042;-81
2021/01/18 01:53:18;;;;;;;24.65;10.32;;;;;;;2.55;80.95;97977.69;4871782;29;20028;-81
2021/01/18 01:55:44;;;;;;;22.50;9.50;;;;;;;2.72;80.81;97979.16;4912916;29;20103;-81
2021/01/18 01:58:10;;;;;;;21.50;9.77;;;;;;;2.74;80.74;97974.66;4912975;29;20039;-81
2021/01/18 02:00:40;;;;;;;19.17;9.77;;;;;;;2.64;80.90;97976.66;4883743;29;20083;-81
2021/01/18 02:03:12;;;;;;;25.95;9.82;;;;;;;2.77;80.37;97974.28;4899425;29;20043;-81
2021/01/18 02:05:39;;;;;;;22.95;9.77;;;;;;;2.76;80.62;97983.00;4902071;29;20159;-81
2021/01/18 02:08:07;;;;;;;19.27;8.95;;;;;;;2.68;80.96;97982.25;4897978;29;20136;-81
2021/01/18 02:10:35;;;;;;;22.42;10.93;;;;;;;2.71;80.35;97990.44;4896109;29;20408;-81
2021/01/18 02:13:24;;;;;;;20.63;9.52;;;;;;;2.61;80.80;97982.16;4895650;29;20443;-81
2021/01/18 02:16:04;;;;;;;24.08;9.88;;;;;;;2.60;81.07;97990.81;4925619;29;20035;-81
2021/01/18 02:18:29;;;;;;;25.05;10.07;;;;;;;2.71;80.74;97990.44;4913271;29;20091;-81
2021/01/18 02:21:16;;;;;;;24.20;11.00;;;;;;;2.42;80.96;97994.50;4895803;29;20456;-81
2021/01/18 02:23:53;;;;;;;24.65;10.25;;;;;;;2.62;81.09;97988.88;4907452;29;20047;-81
2021/01/18 02:26:45;;;;;;;24.15;10.15;;;;;;;2.47;81.44;97985.47;4864862;29;20036;-81
2021/01/18 02:29:17;;;;;;;24.75;9.15;;;;;;;2.66;80.90;97997.84;4891718;29;20059;-81
2021/01/18 02:31:48;;;;;;;22.40;9.30;;;;;;;2.77;80.87;97999.22;4912556;29;20538;-81
2021/01/18 02:34:32;;;;;;;19.15;9.68;;;;;;;2.53;80.78;97990.72;4913719;29;20039;-81
2021/01/18 02:37:02;;;;;;;21.23;9.93;;;;;;;2.63;80.68;98005.91;4920380;29;20055;-81
2021/01/18 02:39:55;;;;;;;19.52;9.57;;;;;;;2.40;81.61;98000.78;4879734;29;20087;-81
2021/01/18 02:42:24;;;;;;;19.17;8.50;;;;;;;2.59;80.64;97989.25;4901218;29;20395;-81
2021/01/18 02:44:51;;;;;;;20.17;8.32;;;;;;;2.66;81.02;97992.72;4906846;29;20042;-81
2021/01/18 02:47:20;;;;;;;23.13;9.02;;;;;;;2.56;80.88;97995.50;4894985;29;20075;-81
2021/01/18 02:49:48;;;;;;;22.60;8.88;;;;;;;2.52;81.12;97996.03;4895100;29;20119;-81
2021/01/18 02:52:15;;;;;;;22.60;8.73;;;;;;;2.61;81.08;97993.22;4910535;29;20144;-81
2021/01/18 02:54:41;;;;;;;18.13;8.93;;;;;;;2.55;80.68;98005.97;4912178;29;20032;-81
2021/01/18 02:57:15;;;;;;;20.55;9.00;;;;;;;2.47;80.77;98000.88;4910080;29;20047;-81
2021/01/18 02:59:44;;;;;;;21.48;9.13;;;;;;;2.54;80.93;97996.66;4914183;29;20031;-81
2021/01/18 03:02:21;;;;;;;21.33;8.40;;;;;;;2.59;80.52;97999.53;4902147;29;20495;-81
2021/01/18 03:05:05;;;;;;;19.23;7.97;;;;;;;2.66;80.69;97999.59;4912012;29;20083;-81
2021/01/18 03:07:53;;;;;;;18.00;8.20;;;;;;;2.36;80.85;98002.09;4912386;29;20098;-81
2021/01/18 03:10:26;;;;;;;20.02;9.18;;;;;;;2.42;80.90;97994.50;4895833;29;20048;-81
2021/01/18 03:13:02;;;;;;;14.40;7.47;;;;;;;2.47;81.07;98008.59;4895533;29;20036;-81
2021/01/18 03:15:33;;;;;;;18.08;8.75;;;;;;;2.51;80.96;98005.50;4864135;29;20400;-81
2021/01/18 03:18:02;;;;;;;16.30;7.85;;;;;;;2.60;80.82;98006.25;4895686;29;20047;-81
2021/01/18 03:20:28;;;;;;;18.27;8.30;;;;;;;2.69;80.27;98004.41;4898114;29;20035;-81
2021/01/18 03:23:01;;;;;;;17.95;8.25;;;;;;;2.61;80.84;98008.66;4914102;29;20035;-81
2021/01/18 03:25:27;;;;;;;25.58;9.10;;;;;;;2.73;80.57;98006.47;4911337;29;20512;-81
2021/01/18 03:27:58;;;;;;;21.50;9.10;;;;;;;2.66;80.94;98008.16;4898182;29;20070;-81
2021/01/18 03:30:25;;;;;;;19.42;8.45;;;;;;;2.55;80.95;98011.09;4914393;29;20063;-81
2021/01/18 03:32:55;;;;;;;21.30;8.60;;;;;;;2.49;81.17;98009.25;4895365;29;20036;-81
2021/01/18 03:35:22;;;;;;;18.25;8.48;;;;;;;2.51;81.38;98004.72;4895858;29;20032;-81
2021/01/18 03:37:55;;;;;;;20.20;8.40;;;;;;;2.44;81.48;98005.41;4909931;29;20039;-81
2021/01/18 03:40:25;;;;;;;20.95;8.20;;;;;;;2.49;81.17;98004.91;4913884;29;20426;-81
2021/01/18 03:42:55;;;;;;;18.25;8.30;;;;;;;2.48;81.41;98003.28;4908910;29;20086;-81
2021/01/18 03:45:21;;;;;;;19.65;8.10;;;;;;;2.53;81.23;97995.06;4883619;29;20570;-81
2021/01/18 03:47:47;;;;;;;22.52;9.25;;;;;;;2.54;81.34;98001.81;4881693;29;20021;-81
2021/01/18 03:50:13;;;;;;;18.52;8.77;;;;;;;2.57;81.10;97994.56;4895029;29;20118;-81
2021/01/18 03:52:45;;;;;;;18.50;9.38;;;;;;;2.54;81.06;97996.66;4895340;29;20047;-80
2021/01/18 03:55:11;;;;;;;19.10;9.55;;;;;;;2.64;80.56;97992.09;4895470;29;20035;-81
2021/01/18 03:57:37;;;;;;;20.08;7.60;;;;;;;2.67;80.78;97986.59;4895163;29;20538;-81
2021/01/18 04:00:05;;;;;;;19.00;9.48;;;;;;;2.63;80.40;97986.13;4917292;29;20035;-81
2021/01/18 04:02:31;;;;;;;21.30;9.55;;;;;;;2.73;80.44;97982.53;4895182;29;20355;-81
2021/01/18 04:04:57;;;;;;;17.27;8.93;;;;;;;2.67;79.92;97985.78;4907394;29;20055;-81
2021/01/18 04:07:23;;;;;;;18.92;8.93;;;;;;;2.68;80.17;97992.53;4913777;29;20046;-81
2021/01/18 04:09:49;;;;;;;17.88;7.93;;;;;;;2.70;80.57;97991.38;4914046;29;20410;-81
2021/01/18 04:12:14;;;;;;;16.13;7.47;;;;;;;2.66;80.25;97995.28;4897969;29;20124;-81
2021/01/18 04:14:40;;;;;;;16.52;7.32;;;;;;;2.63;80.47;97995.63;4885828;29;20495;-81
2021/01/18 04:17:07;;;;;;;19.60;7.90;;;;;;;2.52;80.54;97999.41;4914353;29;20119;-80
2021/01/18 04:19:33;;;;;;;19.33;8.75;;;;;;;2.48;80.88;97995.56;4914177;29;20408;-81
2021/01/18 04:21:59;;;;;;;20.73;9.15;;;;;;;2.50;80.49;97985.94;4913693;29;20120;-81
2021/01/18 04:24:25;;;;;;;15.52;7.70;;;;;;;2.61;81.05;97997.56;4932345;29;20027;-81
2021/01/18 04:26:51;;;;;;;19.35;7.75;;;;;;;2.74;79.82;98000.38;4917427;29;20502;-81
2021/01/18 04:29:17;;;;;;;17.30;8.35;;;;;;;2.62;79.77;97999.16;4913937;29;20104;-81
2021/01/18 04:31:43;;;;;;;18.85;8.15;;;;;;;2.60;79.89;97996.78;4871433;29;20463;-81
2021/01/18 04:34:08;;;;;;;22.25;9.18;;;;;;;2.67;80.15;97996.88;4866168;29;20047;-81
2021/01/18 04:36:38;;;;;;;15.88;7.88;;;;;;;2.57;79.65;97989.41;4919822;29;20027;-81
2021/01/18 04:39:07;;;;;;;20.30;8.02;;;;;;;2.50;80.14;98003.94;4885390;29;20387;-81
2021/01/18 04:41:41;;;;;;;14.77;7.10;;;;;;;2.40;80.29;97999.00;4897799;29;20031;-81
2021/01/18 04:44:07;;;;;;;19.88;8.43;;;;;;;2.49;79.96;98004.09;4897581;29;20031;-81
2021/01/18 04:46:38;;;;;;;19.45;7.85;;;;;;;2.44;80.42;98010.53;4898417;29;20539;-81
2021/01/18 04:49:04;;;;;;;19.20;8.43;;;;;;;2.41;80.83;98010.88;4898373;29;20383;-81
2021/01/18 04:51:32;;;;;;;17.25;6.68;;;;;;;2.44;80.24;98013.09;4897415;29;20032;-81
2021/01/18 04:53:59;;;;;;;20.13;7.20;;;;;;;2.44;80.82;98013.09;4887481;29;20476;-81
2021/01/18 04:56:44;;;;;;;18.13;8.02;;;;;;;2.38;80.68;98018.94;4915340;29;20058;-81
2021/01/18 04:59:12;;;;;;;17.58;7.18;;;;;;;2.49;79.98;98020.31;4900117;29;20387;-81
2021/01/18 05:01:40;;;;;;;18.67;8.10;;;;;;;2.48;79.73;98023.84;4913176;29;20095;-81
2021/01/18 05:04:13;;;;;;;12.55;6.82;;;;;;;2.45;79.97;98013.94;4894508;29;20750;-81
2021/01/18 05:06:46;;;;;;;17.73;7.28;;;;;;;2.39;80.46;98010.25;4897797;29;20391;-81
2021/01/18 05:09:36;;;;;;;17.92;7.43;;;;;;;2.44;80.25;98015.69;4897441;29;20048;-81
2021/01/18 05:12:03;;;;;;;18.27;7.90;;;;;;;2.47;80.35;98011.97;4897777;29;20024;-81
2021/01/18 05:14:29;;;;;;;16.55;8.00;;;;;;;2.54;80.06;98015.47;4915852;29;20027;-81
2021/01/18 05:16:57;;;;;;;18.83;7.85;;;;;;;2.43;80.31;98019.25;4914580;29;20042;-81
2021/01/18 05:19:25;;;;;;;16.83;8.43;;;;;;;2.54;80.61;98017.25;4882327;29;20120;-81
2021/01/18 05:21:51;;;;;;;16.00;7.45;;;;;;;2.67;80.09;98014.06;4902833;29;20025;-81
2021/01/18 05:24:18;;;;;;;19.05;8.32;;;;;;;2.60;79.71;98016.53;4920669;29;20118;-81
2021/01/18 05:27:01;;;;;;;15.95;7.75;;;;;;;2.41;80.80;98023.72;4916492;29;20779;-81
2021/01/18 05:29:31;;;;;;;19.63;7.32;;;;;;;2.55;80.03;98018.81;4901071;29;20029;-81
2021/01/18 05:31:57;;;;;;;18.95;7.43;;;;;;;2.68;80.01;98018.25;4896641;29;20035;-81
2021/01/18 05:34:26;;;;;;;16.10;7.45;;;;;;;2.58;80.19;98024.41;4897405;29;20067;-81
2021/01/18 05:36:55;;;;;;;17.38;8.25;;;;;;;2.62;80.31;98023.13;4904217;29;20031;-81
2021/01/18 05:39:30;;;;;;;15.55;8.35;;;;;;;2.62;80.04;98030.84;4913929;29;20113;-81
2021/01/18 05:41:56;;;;;;;17.48;7.65;;;;;;;2.60;80.38;98031.97;4909530;29;20024;-81
2021/01/18 05:44:31;;;;;;;20.13;9.43;;;;;;;2.34;80.59;98030.53;4905806;29;20094;-81
2021/01/18 05:47:16;;;;;;;20.80;8.52;;;;;;;2.36;80.68;98038.84;4915748;29;20110;-81
2021/01/18 05:49:44;;;;;;;18.08;8.52;;;;;;;2.59;80.07;98033.75;4914694;29;20031;-81
2021/01/18 05:52:29;;;;;;;24.40;9.10;;;;;;;2.40;80.10;98031.63;4915583;29;20028;-81
2021/01/18 05:55:18;;;;;;;19.63;8.97;;;;;;;2.34;80.76;98032.31;4896136;29;20047;-81
2021/01/18 05:58:01;;;;;;;18.58;8.43;;;;;;;2.32;80.56;98024.75;4907898;29;20036;-81
2021/01/18 06:00:33;;;;;;;22.42;10.10;;;;;;;2.53;80.69;98029.28;4907178;29;20697;-81
2021/01/18 06:03:04;;;;;;;20.05;8.35;;;;;;;2.48;80.32;98026.41;4900172;29;20067;-81
2021/01/18 06:05:32;;;;;;;15.27;7.80;;;;;;;2.50;79.96;98031.38;4914138;29;20078;-81
2021/01/18 06:08:15;;;;;;;18.15;9.48;;;;;;;2.34;80.64;98032.31;4914531;29;20608;-81
2021/01/18 06:10:44;;;;;;;22.95;9.88;;;;;;;2.57;80.57;98042.56;4898571;29;20553;-81
2021/01/18 06:13:21;;;;;;;19.88;8.90;;;;;;;2.39;80.14;98032.59;4902814;29;20043;-81
2021/01/18 06:15:52;;;;;;;23.42;10.32;;;;;;;2.48;80.35;98028.19;4914542;29;20055;-81
2021/01/18 06:18:19;;;;;;;21.35;9.57;;;;;;;2.51;80.73;98033.78;4914627;29;20036;-81
2021/01/18 06:20:45;;;;;;;22.85;9.02;;;;;;;2.58;80.81;98039.06;4914124;29;20036;-81
2021/01/18 06:23:20;;;;;;;24.80;9.50;;;;;;;2.39;80.33;98048.00;4930817;29;20103;-81
2021/01/18 06:25:49;;;;;;;24.67;10.38;;;;;;;2.51;80.48;98044.06;4914118;29;20086;-81
2021/01/18 06:28:25;;;;;;;27.45;10.77;;;;;;;2.46;79.93;98046.34;4913673;29;20035;-81
2021/01/18 06:31:03;;;;;;;25.25;10.73;;;;;;;2.45;80.35;98052.47;4913467;29;20032;-81
2021/01/18 06:33:43;;;;;;;24.02;11.43;;;;;;;2.38;80.47;98044.66;4895056;29;20384;-81
2021/01/18 06:36:20;;;;;;;27.27;10.65;;;;;;;2.59;79.78;98048.38;4896671;29;20036;-81
2021/01/18 06:38:52;;;;;;;25.30;11.25;;;;;;;2.81;79.56;98049.31;4915230;29;20027;-81
2021/01/18 06:41:35;;;;;;;24.83;10.90;;;;;;;2.48;79.48;98049.53;4914739;29;20035;-81
2021/01/18 06:44:03;;;;;;;26.75;11.18;;;;;;;2.66;79.92;98053.59;4901672;29;20040;-81
2021/01/18 06:46:32;;;;;;;27.10;11.30;;;;;;;2.64;80.13;98058.94;4915655;29;20027;-81
2021/01/18 06:48:58;;;;;;;27.38;11.65;;;;;;;2.76;80.16;98065.28;4906805;29;20036;-81
2021/01/18 06:51:25;;;;;;;29.25;12.48;;;;;;;2.65;79.88;98059.72;4899299;29;20039;-81
2021/01/18 06:53:56;;;;;;;26.80;11.27;;;;;;;2.70;79.90;98063.38;4909908;29;20431;-81
2021/01/18 06:56:52;;;;;;;32.67;14.18;;;;;;;2.48;80.05;98059.03;4928258;29;20032;-81
2021/01/18 06:59:49;;;;;;;37.15;13.98;;;;;;;2.57;80.56;98069.09;4897095;29;20028;-81
2021/01/18 07:02:23;;;;;;;28.38;12.25;;;;;;;2.57;79.94;98070.84;4914285;29;20039;-81
2021/01/18 07:04:51;;;;;;;25.37;10.90;;;;;;;2.51;80.34;98069.78;4896066;29;20056;-81
2021/01/18 07:07:31;;;;;;;27.85;12.35;;;;;;;2.40;81.30;98065.84;4895765;29;20565;-81
2021/01/18 07:09:59;;;;;;;29.70;12.43;;;;;;;2.60;80.80;98073.09;4899778;29;20119;-81
2021/01/18 07:12:28;;;;;;;31.45;11.93;;;;;;;2.52;80.73;98066.25;4895163;29;20062;-81
2021/01/18 07:15:03;;;;;;;33.97;13.38;;;;;;;2.48;80.54;98071.88;4895590;29;20032;-81
2021/01/18 07:17:50;;;;;;;29.80;12.77;;;;;;;2.69;80.04;98076.41;4912280;29;20051;-81
2021/01/18 07:20:21;;;;;;;26.02;11.90;;;;;;;2.57;79.77;98071.69;4914152;29;20527;-81
2021/01/18 07:23:17;;;;;;;28.42;11.07;;;;;;;2.59;79.90;98080.00;4879455;29;20063;-81
2021/01/18 07:25:43;;;;;;;38.10;12.40;;;;;;;2.84;79.79;98084.19;4905169;29;20075;-82
2021/01/18 07:28:18;;;;;;;24.83;10.90;;;;;;;2.74;79.24;98081.84;4912630;29;20515;-81
2021/01/18 07:30:44;;;;;;;23.47;10.63;;;;;;;2.83;79.59;98077.44;4896794;29;20040;-81
2021/01/18 07:33:13;;;;;;;28.05;10.75;;;;;;;2.80;79.62;98070.88;4895099;29;20036;-81
2021/01/18 07:35:40;;;;;;;24.02;10.43;;;;;;;2.87;79.46;98082.06;4879885;29;20036;-81
2021/01/18 07:38:12;;;;;;;21.30;9.55;;;;;;;2.80;79.37;98083.72;4881089;29;20051;-81
2021/01/18 07:40:40;;;;;;;24.15;10.77;;;;;;;2.83;79.21;98074.88;4912806;29;20036;-81
2021/01/18 07:43:06;;;;;;;22.90;9.07;;;;;;;2.89;79.38;98080.13;4898768;29;20027;-81
2021/01/18 07:45:32;;;;;;;20.42;10.25;;;;;;;2.91;79.49;98070.44;4902846;29;20094;-81
2021/01/18 07:48:01;;;;;;;20.80;9.38;;;;;;;2.86;79.74;98084.81;4901451;29;20496;-81
2021/01/18 07:50:27;;;;;;;25.42;10.00;;;;;;;2.85;79.59;98080.66;4909050;29;20042;-81
2021/01/18 07:53:08;;;;;;;25.90;9.95;;;;;;;2.56;80.19;98079.56;4912934;29;20099;-81
2021/01/18 07:55:35;;;;;;;31.45;11.45;;;;;;;2.73;79.91;98083.63;4896202;29;20032;-81
2021/01/18 07:58:15;;;;;;;25.48;10.40;;;;;;;2.62;80.14;98092.53;4897661;29;20336;-81
2021/01/18 08:00:41;;;;;;;25.63;11.18;;;;;;;2.81;80.18;98090.47;4898494;29;20391;-81
2021/01/18 08:03:07;;;;;;;25.20;11.10;;;;;;;2.79;80.28;98095.81;4914448;29;20479;-80
2021/01/18 08:05:35;;;;;;;21.13;10.15;;;;;;;2.81;80.18;98105.88;4872425;29;20043;-81
2021/01/18 08:08:01;;;;;;;22.45;11.13;;;;;;;2.83;79.74;98106.53;4901233;29;20048;-80
2021/01/18 08:10:45;;;;;;;24.58;10.80;;;;;;;2.73;79.30;98113.69;4927676;29;20048;-81
2021/01/18 08:13:30;;;;;;;25.63;10.98;;;;;;;2.69;79.96;98118.38;4921138;29;20040;-80
2021/01/18 08:15:57;;;;;;;26.80;11.65;;;;;;;2.84;79.77;98113.28;4901468;29;20020;-81
2021/01/18 08:18:28;;;;;;;23.88;10.88;;;;;;;2.72;79.27;98112.88;4908638;29;20127;-80
2021/01/18 08:20:54;;;;;;;23.60;10.55;;;;;;;2.92;79.77;98118.38;4897938;29;20043;-80
2021/01/18 08:23:42;;;;;;;23.70;10.32;;;;;;;2.76;79.19;98116.72;4884240;29;20028;-81
2021/01/18 08:26:10;;;;;;;25.88;11.50;;;;;;;2.81;80.04;98114.44;4902277;29;20020;-80
2021/01/18 08:28:37;;;;;;;26.60;11.32;;;;;;;2.80;79.98;98117.97;4918427;29;20036;-81
2021/01/18 08:31:13;;;;;;;28.70;12.80;;;;;;;2.87;79.64;98114.72;4897330;29;20048;-80
2021/01/18 08:33:39;;;;;;;23.23;11.45;;;;;;;2.89;79.76;98118.69;4908729;29;20055;-80
2021/01/18 08:36:04;;;;;;;28.52;11.45;;;;;;;2.78;79.48;98112.19;4906791;29;20152;-80
2021/01/18 08:38:31;;;;;;;24.58;10.82;;;;;;;2.97;79.18;98108.34;4914236;29;20119;-80
2021/01/18 08:41:05;;;;;;;19.25;10.05;;;;;;;2.94;79.33;98110.47;4897614;29;20024;-80
2021/01/18 08:43:50;;;;;;;19.80;9.57;;;;;;;2.76;79.96;98121.03;4895581;29;20027;-80
2021/01/18 08:46:32;;;;;;;20.65;8.90;;;;;;;2.78;79.77;98119.91;4904189;29;20053;-80
2021/01/18 08:49:33;;;;;;;22.40;9.23;;;;;;;2.81;79.38;98124.72;4913635;29;20036;-80
2021/01/18 08:52:00;;;;;;;20.42;9.30;;;;;;;3.08;78.93;98126.94;4881744;29;20063;-80
2021/01/18 08:54:36;;;;;;;19.98;8.43;;;;;;;2.95;79.21;98120.59;4883491;29;20510;-80
2021/01/18 08:57:26;;;;;;;20.45;8.55;;;;;;;2.92;79.57;98120.94;4916884;29;20043;-81
2021/01/18 09:00:06;;;;;;;18.00;8.60;;;;;;;2.96;79.09;98114.47;4912646;29;20035;-80
2021/01/18 09:02:33;;;;;;;15.38;7.93;;;;;;;3.13;79.08;98122.88;4913128;29;20024;-80
2021/01/18 09:05:21;;;;;;;13.63;6.85;;;;;;;2.92;79.09;98123.50;4898581;29;20052;-80
2021/01/18 09:07:49;;;;;;;15.38;7.38;;;;;;;3.08;78.86;98122.56;4899223;29;20062;-80
2021/01/18 09:10:22;;;;;;;16.52;7.70;;;;;;;2.89;79.05;98117.91;4896108;29;20044;-80
2021/01/18 09:12:49;;;;;;;13.98;6.28;;;;;;;3.09;79.20;98118.25;4890696;29;20031;-80
2021/01/18 09:15:20;;;;;;;15.13;6.93;;;;;;;2.85;79.35;98116.66;4896353;29;20091;-79
2021/01/18 09:17:47;;;;;;;14.45;7.78;;;;;;;3.01;79.11;98119.09;4930985;29;20076;-80
2021/01/18 09:20:13;;;;;;;14.27;7.28;;;;;;;2.97;79.65;98110.13;4912698;29;20074;-80
2021/01/18 09:22:41;;;;;;;16.50;8.30;;;;;;;2.97;79.50;98110.94;4896326;29;20379;-80
2021/01/18 09:25:08;;;;;;;20.27;8.73;;;;;;;3.03;78.78;98116.38;4897777;29;20487;-79
2021/01/18 09:27:36;;;;;;;18.35;8.93;;;;;;;2.97;79.00;98115.28;4909320;29;20034;-80
2021/01/18 09:30:15;;;;;;;16.17;8.13;;;;;;;2.86;79.17;98111.31;4904771;29;20067;-80
2021/01/18 09:32:55;;;;;;;21.83;9.07;;;;;;;2.53;80.56;98106.38;4913363;29;20044;-79
2021/01/18 09:35:22;;;;;;;17.40;8.88;;;;;;;2.93;80.09;98101.97;4912018;29;20349;-80
2021/01/18 09:37:48;;;;;;;24.05;10.70;;;;;;;2.86;80.26;98106.19;4906514;29;20048;-80
2021/01/18 09:40:17;;;;;;;17.83;9.88;;;;;;;2.99;79.63;98108.19;4900064;29;20071;-79
2021/01/18 09:42:48;;;;;;;19.30;9.30;;;;;;;2.99;79.92;98110.75;4895176;29;20127;-80
2021/01/18 09:45:14;;;;;;;23.10;10.05;;;;;;;2.89;80.52;98113.56;4909416;29;20060;-80
2021/01/18 09:47:40;;;;;;;19.40;9.38;;;;;;;2.96;79.72;98121.38;4899932;29;20027;-80
2021/01/18 09:50:06;;;;;;;17.92;9.25;;;;;;;3.07;79.43;98121.00;4898406;29;20031;-80
2021/01/18 09:52:33;;;;;;;23.73;9.93;;;;;;;3.00;79.70;98120.88;4929878;29;20051;-79
2021/01/18 09:55:03;;;;;;;20.77;10.18;;;;;;;2.97;79.93;98125.56;4919811;29;20031;-80
2021/01/18 09:57:29;;;;;;;21.05;9.55;;;;;;;3.03;79.93;98122.28;4895027;29;20047;-80
2021/01/18 09:59:56;;;;;;;21.00;9.50;;;;;;;3.06;79.85;98127.09;4894938;29;20414;-80
2021/01/18 10:02:22;;;;;;;18.40;9.43;;;;;;;3.18;79.31;98132.66;4896427;29;20016;-80
2021/01/18 10:04:49;;;;;;;17.45;10.10;;;;;;;3.15;79.06;98126.09;4914561;29;20055;-79
2021/01/18 10:07:15;;;;;;;20.60;10.00;;;;;;;2.99;79.91;98123.63;4898410;29;20246;-80
2021/01/18 10:09:42;;;;;;;24.23;10.07;;;;;;;2.87;80.13;98123.22;4895421;29;20535;-79
2021/01/18 10:12:12;;;;;;;18.33;9.98;;;;;;;2.72;80.72;98124.94;4898459;29;20468;-80
2021/01/18 10:14:48;;;;;;;22.05;10.00;;;;;;;2.71;80.48;98121.56;4895036;29;20486;-80
2021/01/18 10:17:15;;;;;;;22.40;10.75;;;;;;;2.91;80.09;98124.47;4922683;29;20087;-80
2021/01/18 10:19:41;;;;;;;20.27;10.30;;;;;;;2.91;80.92;98121.09;4880754;29;20468;-80
2021/01/18 10:22:15;;;;;;;20.38;9.38;;;;;;;2.80;80.06;98117.97;4908121;29;20028;-80
2021/01/18 10:24:41;;;;;;;21.48;9.63;;;;;;;2.97;80.03;98117.84;4912538;29;20092;-80
2021/01/18 10:27:15;;;;;;;23.52;10.63;;;;;;;3.00;80.21;98122.66;4925075;29;20095;-80
2021/01/18 10:29:41;;;;;;;22.58;10.40;;;;;;;3.09;80.17;98115.69;4895437;29;20063;-80
2021/01/18 10:32:10;;;;;;;20.13;9.15;;;;;;;2.96;79.74;98113.69;4906770;29;20058;-80
2021/01/18 10:34:36;;;;;;;21.50;9.82;;;;;;;3.08;80.53;98117.44;4911861;29;20040;-80
2021/01/18 10:37:12;;;;;;;22.27;10.25;;;;;;;3.08;79.91;98114.88;4900678;29;20035;-80
2021/01/18 10:39:47;;;;;;;19.08;9.02;;;;;;;3.00;80.11;98112.38;4894992;29;20357;-80
2021/01/18 10:42:15;;;;;;;15.75;8.80;;;;;;;3.17;79.42;98116.41;4905353;29;20032;-80
2021/01/18 10:44:55;;;;;;;17.73;8.38;;;;;;;3.09;79.09;98119.03;4913497;29;20043;-80
2021/01/18 10:47:25;;;;;;;20.08;9.23;;;;;;;3.12;80.17;98107.59;4904973;29;20036;-80
2021/01/18 10:49:57;;;;;;;16.73;8.45;;;;;;;3.24;79.44;98113.13;4913385;29;20098;-80
2021/01/18 10:52:32;;;;;;;18.05;8.90;;;;;;;3.21;79.62;98108.34;4877309;29;20032;-80
2021/01/18 10:54:59;;;;;;;22.20;9.65;;;;;;;3.29;78.97;98106.50;4930032;29;20043;-80
2021/01/18 10:57:26;;;;;;;19.25;9.02;;;;;;;3.34;79.27;98100.81;4907619;29;20035;-80
2021/01/18 11:00:08;;;;;;;18.58;9.02;;;;;;;3.22;79.15;98107.38;4906124;29;20111;-80
2021/01/18 11:02:34;;;;;;;15.98;7.93;;;;;;;3.60;78.32;98109.91;4899070;29;20162;-80
2021/01/18 11:05:01;;;;;;;15.90;8.35;;;;;;;3.54;78.28;98098.53;4911013;29;20420;-80
2021/01/18 11:07:27;;;;;;;16.02;8.48;;;;;;;3.41;79.27;98096.59;4891009;29;20059;-80
2021/01/18 11:10:02;;;;;;;16.80;8.10;;;;;;;3.47;78.53;98102.81;4897135;29;20071;-80
2021/01/18 11:12:35;;;;;;;;;;;;;;;3.23;79.50;98098.69;4900329;29;20024;-81
2021/01/18 11:15:01;;;;;;;15.15;7.05;;;;;;;3.45;79.18;98102.97;4912788;29;19919;-80
2021/01/18 11:17:28;;;;;;;15.32;7.25;;;;;;;3.46;78.92;98102.00;4908546;29;20031;-80
2021/01/18 11:19:54;;;;;;;17.10;7.75;;;;;;;3.34;79.23;98100.81;4878722;29;20044;-80
2021/01/18 11:22:20;;;;;;;16.38;7.38;;;;;;;3.55;78.35;98097.59;4911668;29;20024;-80
2021/01/18 11:24:47;;;;;;;15.02;7.38;;;;;;;3.30;79.24;98089.28;4883110;29;20032;-80
2021/01/18 11:27:13;;;;;;;18.95;8.63;;;;;;;3.49;78.94;98098.28;4911205;29;20151;-80
2021/01/18 11:29:39;;;;;;;15.27;6.97;;;;;;;3.34;78.85;98096.50;4900124;29;20036;-80
2021/01/18 11:32:05;;;;;;;15.98;7.15;;;;;;;3.28;79.34;98091.25;4911803;29;20221;-80
2021/01/18 11:34:30;;;;;;;13.55;6.10;;;;;;;3.47;78.65;98087.34;4915483;29;20043;-80
2021/01/18 11:37:06;;;;;;;13.00;6.00;;;;;;;3.41;78.75;98094.03;4897553;29;20072;-81
2021/01/18 11:39:32;;;;;;;13.60;5.93;;;;;;;3.48;79.40;98086.38;4897552;29;20032;-80
2021/01/18 11:41:59;;;;;;;14.40;6.43;;;;;;;3.64;78.40;98080.28;4916031;29;20054;-81
2021/01/18 11:44:25;;;;;;;11.20;6.38;;;;;;;3.63;78.25;98087.19;4905036;29;20028;-80
2021/01/18 11:47:01;;;;;;;12.02;6.57;;;;;;;3.49;78.49;98080.25;4919832;29;20054;-81
2021/01/18 11:49:27;;;;;;;11.30;6.32;;;;;;;3.61;78.37;98075.47;4911947;29;20095;-81